London, United Kingdom

7:54 AM BST on August 20, 2014 (GMT +0100)
Heathrow | Change Station
CLOSE
Current Station
Airport
Location: London,
Elevation: 79 ft
Nearby Weather Stations

Elev 79 ft 51.48 °N, 0.46 °W | Updated 4 minutes ago

Clear
Clear
50 °F
Feels Like 50 °F
N
5
Wind Variable Wind from WNW

Today
High -- | Low -- °F
--% Chance of Precip.
Yesterday
High -- | Low -- °F
Precip. -- in
5:55 AM 8:14 PM
Waning Crescent, 24% visible
Pressure 30.04 in
Visibility -9999.0 miles
Clouds
Dew Point 46 °F
Humidity 87%
Rainfall 0.00 in
Snow Depth Not available.
UV Not available.
Pollen Not available.
Air Quality Not available.
Flu Activity Not available.
METAR EGLL 200650Z 30004KT 270V350 CAVOK 10/08 Q1017

More Conditions Fewer Conditions

Pressure 30.04 in
Visibility -9999.0 miles
Clouds
Dew Point 46 °F
Humidity 87%
Rainfall 0.00 in
Snow Depth Not available.
UV Not available.
Pollen Not available.
Air Quality Not available.
Flu Activity Not available.
METAR EGLL 200650Z 30004KT 270V350 CAVOK 10/08 Q1017

More Conditions Fewer Conditions

10-Day Weather Forecast

Almanac

Astronomy

Aug. 20, 2014 Rise Set
Actual Time 5:55 AM BST 8:14 PM BST
Civil Twilight 5:18 AM BST 8:50 PM BST
Nautical Twilight 4:32 AM BST 9:36 PM BST
Astronomical Twilight 3:37 AM BST 10:30 PM BST
Moon 1:09 AM BST 5:00 PM BST
Length of Visible Light 15h 32m
Length of Day
14h 19m
Tomorrow will be 3m 41s shorter.
Waning Crescent, 24% of the Moon is Illuminated
Today
Waning Crescent
Aug 25
New
Sep 2
First Quarter
Sep 8
Full
Sep 15
Last Quarter

Yesterday's Extremes

Country Highs Country Lows

Community

WunderPhotos

Upload Photos

1,745,592 photos uploaded!

Nearby

Snow Depth

Not available.

Earthquake Activity

City Distance Mag. Time & Date
No recent earthquake activity has been reported nearby.
Minimum magnitude displayed is 2.5.

Coastal Water Temperatures

Place Temperature
No Stations Reporting

Nearby Weather Stations